sensor_id;sensor_type;location;lat;lon;timestamp;pressure;altitude;pressure_sealevel;temperature;humidity
84501;BME280;74725;44.210;17.906;2024-01-06T00:01:29;96977.50;;;12.69;98.81
84501;BME280;74725;44.210;17.906;2024-01-06T00:03:55;96979.44;;;12.78;98.65
84501;BME280;74725;44.210;17.906;2024-01-06T00:06:21;96962.31;;;12.83;98.46
84501;BME280;74725;44.210;17.906;2024-01-06T00:08:47;96967.75;;;12.92;99.37
84501;BME280;74725;44.210;17.906;2024-01-06T00:11:22;96967.69;;;13.02;98.82
84501;BME280;74725;44.210;17.906;2024-01-06T00:13:48;96960.31;;;13.08;97.64
84501;BME280;74725;44.210;17.906;2024-01-06T00:16:17;96955.03;;;13.19;97.23
84501;BME280;74725;44.210;17.906;2024-01-06T00:18:43;96954.63;;;13.11;97.05
84501;BME280;74725;44.210;17.906;2024-01-06T00:21:09;96954.88;;;12.98;99.79
84501;BME280;74725;44.210;17.906;2024-01-06T00:23:34;96943.53;;;13.06;97.80
84501;BME280;74725;44.210;17.906;2024-01-06T00:26:00;96957.06;;;12.94;99.67
84501;BME280;74725;44.210;17.906;2024-01-06T00:28:25;96947.00;;;12.91;100.00
84501;BME280;74725;44.210;17.906;2024-01-06T00:30:51;96948.69;;;12.89;100.00
84501;BME280;74725;44.210;17.906;2024-01-06T00:33:17;96949.22;;;12.78;100.00
84501;BME280;74725;44.210;17.906;2024-01-06T00:35:42;96965.53;;;12.82;100.00
84501;BME280;74725;44.210;17.906;2024-01-06T00:38:08;96960.22;;;12.78;99.87
84501;BME280;74725;44.210;17.906;2024-01-06T00:40:33;96946.47;;;12.78;100.00
84501;BME280;74725;44.210;17.906;2024-01-06T00:42:59;96962.41;;;12.89;99.72
84501;BME280;74725;44.210;17.906;2024-01-06T00:45:25;96953.72;;;12.66;100.00
84501;BME280;74725;44.210;17.906;2024-01-06T00:47:50;96961.72;;;12.79;100.00
84501;BME280;74725;44.210;17.906;2024-01-06T00:50:17;96964.31;;;12.83;100.00
84501;BME280;74725;44.210;17.906;2024-01-06T00:52:44;96942.56;;;12.70;100.00
84501;BME280;74725;44.210;17.906;2024-01-06T00:55:10;96948.44;;;12.78;100.00
84501;BME280;74725;44.210;17.906;2024-01-06T00:57:36;96928.44;;;12.29;100.00
84501;BME280;74725;44.210;17.906;2024-01-06T01:00:04;96938.19;;;12.30;100.00
84501;BME280;74725;44.210;17.906;2024-01-06T01:02:30;96936.94;;;12.31;100.00
84501;BME280;74725;44.210;17.906;2024-01-06T01:04:55;96935.09;;;12.37;100.00
84501;BME280;74725;44.210;17.906;2024-01-06T01:07:22;96953.41;;;12.40;100.00
84501;BME280;74725;44.210;17.906;2024-01-06T01:09:48;96951.63;;;12.28;100.00
84501;BME280;74725;44.210;17.906;2024-01-06T01:12:14;96945.19;;;12.31;100.00
84501;BME280;74725;44.210;17.906;2024-01-06T01:14:39;96941.53;;;12.34;100.00
84501;BME280;74725;44.210;17.906;2024-01-06T01:17:05;96926.44;;;12.30;100.00
84501;BME280;74725;44.210;17.906;2024-01-06T01:19:30;96941.56;;;12.25;100.00
84501;BME280;74725;44.210;17.906;2024-01-06T01:21:56;96942.06;;;12.23;100.00
84501;BME280;74725;44.210;17.906;2024-01-06T01:24:22;96935.50;;;12.21;100.00
84501;BME280;74725;44.210;17.906;2024-01-06T01:26:48;96934.22;;;12.31;100.00
84501;BME280;74725;44.210;17.906;2024-01-06T01:29:15;96927.84;;;12.82;100.00
84501;BME280;74725;44.210;17.906;2024-01-06T01:31:41;96930.66;;;13.12;100.00
84501;BME280;74725;44.210;17.906;2024-01-06T01:34:06;96929.81;;;13.06;100.00
84501;BME280;74725;44.210;17.906;2024-01-06T01:36:32;96919.44;;;13.25;100.00
84501;BME280;74725;44.210;17.906;2024-01-06T01:38:58;96926.38;;;13.50;100.00
84501;BME280;74725;44.210;17.906;2024-01-06T01:41:24;96913.22;;;13.68;100.00
84501;BME280;74725;44.210;17.906;2024-01-06T01:43:50;96922.66;;;13.97;100.00
84501;BME280;74725;44.210;17.906;2024-01-06T01:46:25;96922.81;;;14.23;100.00
84501;BME280;74725;44.210;17.906;2024-01-06T01:48:52;96925.03;;;14.54;100.00
84501;BME280;74725;44.210;17.906;2024-01-06T01:51:19;96919.84;;;14.77;100.00
84501;BME280;74725;44.210;17.906;2024-01-06T01:53:45;96908.53;;;14.95;100.00
84501;BME280;74725;44.210;17.906;2024-01-06T01:56:11;96913.97;;;15.10;100.00
84501;BME280;74725;44.210;17.906;2024-01-06T01:58:37;96904.41;;;15.31;100.00
84501;BME280;74725;44.210;17.906;2024-01-06T02:01:03;96908.66;;;15.53;100.00
84501;BME280;74725;44.210;17.906;2024-01-06T02:03:30;96902.59;;;15.75;100.00
84501;BME280;74725;44.210;17.906;2024-01-06T02:05:56;96911.59;;;15.70;100.00
84501;BME280;74725;44.210;17.906;2024-01-06T02:08:22;96910.84;;;15.69;100.00
84501;BME280;74725;44.210;17.906;2024-01-06T02:10:47;96913.06;;;15.65;100.00
84501;BME280;74725;44.210;17.906;2024-01-06T02:13:13;96895.53;;;15.68;100.00
84501;BME280;74725;44.210;17.906;2024-01-06T02:15:39;96892.31;;;15.75;100.00
84501;BME280;74725;44.210;17.906;2024-01-06T02:18:05;96881.22;;;15.70;99.67
84501;BME280;74725;44.210;17.906;2024-01-06T02:20:31;96881.16;;;15.64;99.30
84501;BME280;74725;44.210;17.906;2024-01-06T02:22:57;96863.59;;;15.61;98.72
84501;BME280;74725;44.210;17.906;2024-01-06T02:25:24;96867.66;;;15.66;99.65
84501;BME280;74725;44.210;17.906;2024-01-06T02:27:50;96865.31;;;15.59;98.02
84501;BME280;74725;44.210;17.906;2024-01-06T02:30:16;96874.63;;;15.87;96.49
84501;BME280;74725;44.210;17.906;2024-01-06T02:32:41;96878.28;;;15.79;98.32
84501;BME280;74725;44.210;17.906;2024-01-06T02:35:07;96874.88;;;15.89;96.59
84501;BME280;74725;44.210;17.906;2024-01-06T02:37:33;96869.47;;;16.06;95.10
84501;BME280;74725;44.210;17.906;2024-01-06T02:39:58;96877.84;;;15.86;96.41
84501;BME280;74725;44.210;17.906;2024-01-06T02:42:24;96873.63;;;15.90;95.48
84501;BME280;74725;44.210;17.906;2024-01-06T02:44:50;96867.41;;;16.01;94.72
84501;BME280;74725;44.210;17.906;2024-01-06T02:47:16;96868.44;;;16.04;92.64
84501;BME280;74725;44.210;17.906;2024-01-06T02:49:42;96859.28;;;16.24;91.97
84501;BME280;74725;44.210;17.906;2024-01-06T02:52:08;96869.84;;;16.25;91.93
84501;BME280;74725;44.210;17.906;2024-01-06T02:54:33;96872.38;;;16.29;91.69
84501;BME280;74725;44.210;17.906;2024-01-06T02:56:59;96872.38;;;16.29;90.94
84501;BME280;74725;44.210;17.906;2024-01-06T02:59:25;96874.44;;;16.39;90.11
84501;BME280;74725;44.210;17.906;2024-01-06T03:01:50;96865.88;;;16.37;90.10
84501;BME280;74725;44.210;17.906;2024-01-06T03:04:16;96872.19;;;16.44;89.35
84501;BME280;74725;44.210;17.906;2024-01-06T03:06:42;96877.50;;;16.47;88.50
84501;BME280;74725;44.210;17.906;2024-01-06T03:09:07;96864.94;;;16.46;89.04
84501;BME280;74725;44.210;17.906;2024-01-06T03:11:33;96878.22;;;16.42;89.27
84501;BME280;74725;44.210;17.906;2024-01-06T03:13:58;96867.13;;;16.36;89.47
84501;BME280;74725;44.210;17.906;2024-01-06T03:16:24;96860.06;;;16.30;90.07
84501;BME280;74725;44.210;17.906;2024-01-06T03:18:49;96852.50;;;16.25;90.74
84501;BME280;74725;44.210;17.906;2024-01-06T03:21:21;96849.72;;;16.19;89.68
84501;BME280;74725;44.210;17.906;2024-01-06T03:23:48;96835.69;;;16.23;89.04
84501;BME280;74725;44.210;17.906;2024-01-06T03:26:13;96834.25;;;16.38;88.36
84501;BME280;74725;44.210;17.906;2024-01-06T03:28:39;96834.75;;;16.37;88.06
84501;BME280;74725;44.210;17.906;2024-01-06T03:31:04;96812.84;;;16.28;88.46
84501;BME280;74725;44.210;17.906;2024-01-06T03:33:30;96811.81;;;16.25;89.27
84501;BME280;74725;44.210;17.906;2024-01-06T03:35:56;96805.81;;;16.27;88.03
84501;BME280;74725;44.210;17.906;2024-01-06T03:38:21;96814.00;;;16.10;89.45
84501;BME280;74725;44.210;17.906;2024-01-06T03:40:47;96811.22;;;16.04;89.24
84501;BME280;74725;44.210;17.906;2024-01-06T03:43:12;96816.47;;;16.02;90.21
84501;BME280;74725;44.210;17.906;2024-01-06T03:45:38;96812.81;;;15.79;91.88
84501;BME280;74725;44.210;17.906;2024-01-06T03:48:04;96803.53;;;15.51;91.80
84501;BME280;74725;44.210;17.906;2024-01-06T03:50:29;96812.06;;;15.21;93.82
84501;BME280;74725;44.210;17.906;2024-01-06T03:52:55;96815.03;;;15.17;93.44
84501;BME280;74725;44.210;17.906;2024-01-06T03:55:20;96812.66;;;15.05;94.12
84501;BME280;74725;44.210;17.906;2024-01-06T03:57:46;96807.97;;;15.11;93.73
84501;BME280;74725;44.210;17.906;2024-01-06T04:00:12;96814.13;;;15.26;94.53
84501;BME280;74725;44.210;17.906;2024-01-06T04:02:37;96806.09;;;15.28;93.44
84501;BME280;74725;44.210;17.906;2024-01-06T04:05:03;96802.16;;;15.35;93.26
84501;BME280;74725;44.210;17.906;2024-01-06T04:07:30;96797.28;;;15.24;94.06
84501;BME280;74725;44.210;17.906;2024-01-06T04:09:56;96796.88;;;15.31;93.00
84501;BME280;74725;44.210;17.906;2024-01-06T04:12:21;96790.50;;;15.20;93.89
84501;BME280;74725;44.210;17.906;2024-01-06T04:14:47;96788.03;;;15.22;92.80
84501;BME280;74725;44.210;17.906;2024-01-06T04:17:13;96783.19;;;15.16;93.00
84501;BME280;74725;44.210;17.906;2024-01-06T04:19:38;96774.56;;;15.03;95.05
84501;BME280;74725;44.210;17.906;2024-01-06T04:22:04;96782.19;;;15.14;91.00
84501;BME280;74725;44.210;17.906;2024-01-06T04:24:29;96789.78;;;15.25;90.02
84501;BME280;74725;44.210;17.906;2024-01-06T04:26:55;96789.13;;;15.35;87.45
84501;BME280;74725;44.210;17.906;2024-01-06T04:29:21;96797.16;;;15.33;87.83
84501;BME280;74725;44.210;17.906;2024-01-06T04:31:46;96796.06;;;15.57;87.47
84501;BME280;74725;44.210;17.906;2024-01-06T04:34:12;96799.94;;;15.65;89.34
84501;BME280;74725;44.210;17.906;2024-01-06T04:36:38;96796.97;;;15.74;86.28
84501;BME280;74725;44.210;17.906;2024-01-06T04:39:03;96807.66;;;15.61;86.55
84501;BME280;74725;44.210;17.906;2024-01-06T04:41:29;96800.53;;;15.80;86.79
84501;BME280;74725;44.210;17.906;2024-01-06T04:43:54;96808.72;;;15.69;87.38
84501;BME280;74725;44.210;17.906;2024-01-06T04:46:20;96790.91;;;15.70;86.48
84501;BME280;74725;44.210;17.906;2024-01-06T04:48:47;96790.41;;;15.66;87.43
84501;BME280;74725;44.210;17.906;2024-01-06T04:51:12;96789.31;;;15.58;87.98
84501;BME280;74725;44.210;17.906;2024-01-06T04:53:39;96776.09;;;15.68;87.26
84501;BME280;74725;44.210;17.906;2024-01-06T04:56:05;96777.28;;;15.61;87.25
84501;BME280;74725;44.210;17.906;2024-01-06T04:58:31;96785.19;;;15.74;87.20
84501;BME280;74725;44.210;17.906;2024-01-06T05:00:56;96771.63;;;15.76;86.50
84501;BME280;74725;44.210;17.906;2024-01-06T05:03:22;96768.25;;;15.60;86.66
84501;BME280;74725;44.210;17.906;2024-01-06T05:05:48;96753.69;;;15.60;86.75
84501;BME280;74725;44.210;17.906;2024-01-06T05:08:14;96758.91;;;15.52;87.71
84501;BME280;74725;44.210;17.906;2024-01-06T05:10:39;96749.56;;;15.44;87.15
84501;BME280;74725;44.210;17.906;2024-01-06T05:13:05;96746.09;;;15.49;86.82
84501;BME280;74725;44.210;17.906;2024-01-06T05:15:31;96732.53;;;15.46;89.51
84501;BME280;74725;44.210;17.906;2024-01-06T05:17:56;96735.06;;;15.49;88.83
84501;BME280;74725;44.210;17.906;2024-01-06T05:20:22;96745.41;;;15.60;89.15
84501;BME280;74725;44.210;17.906;2024-01-06T05:22:48;96734.91;;;15.64;90.52
84501;BME280;74725;44.210;17.906;2024-01-06T05:25:13;96730.72;;;15.74;89.83
84501;BME280;74725;44.210;17.906;2024-01-06T05:27:39;96735.72;;;15.70;86.70
84501;BME280;74725;44.210;17.906;2024-01-06T05:30:05;96736.91;;;15.63;86.70
84501;BME280;74725;44.210;17.906;2024-01-06T05:32:31;96726.63;;;15.64;85.21
84501;BME280;74725;44.210;17.906;2024-01-06T05:34:57;96726.94;;;15.66;85.50
84501;BME280;74725;44.210;17.906;2024-01-06T05:37:22;96734.47;;;15.71;84.89
84501;BME280;74725;44.210;17.906;2024-01-06T05:39:48;96738.56;;;15.81;85.09
84501;BME280;74725;44.210;17.906;2024-01-06T05:42:14;96731.31;;;15.89;83.44
84501;BME280;74725;44.210;17.906;2024-01-06T05:44:42;96729.31;;;15.90;83.17
84501;BME280;74725;44.210;17.906;2024-01-06T05:47:08;96741.44;;;16.04;83.35
84501;BME280;74725;44.210;17.906;2024-01-06T05:49:34;96731.41;;;16.06;82.54
84501;BME280;74725;44.210;17.906;2024-01-06T05:51:59;96739.44;;;16.10;82.35
84501;BME280;74725;44.210;17.906;2024-01-06T05:54:25;96743.47;;;16.09;82.30
84501;BME280;74725;44.210;17.906;2024-01-06T05:56:51;96744.72;;;16.08;82.07
84501;BME280;74725;44.210;17.906;2024-01-06T05:59:16;96735.00;;;16.24;81.62
84501;BME280;74725;44.210;17.906;2024-01-06T06:01:42;96740.28;;;16.27;80.28
84501;BME280;74725;44.210;17.906;2024-01-06T06:04:11;96727.50;;;16.35;80.22
84501;BME280;74725;44.210;17.906;2024-01-06T06:06:36;96728.22;;;16.25;80.67
84501;BME280;74725;44.210;17.906;2024-01-06T06:09:02;96730.00;;;16.28;80.75
84501;BME280;74725;44.210;17.906;2024-01-06T06:11:35;96737.25;;;16.25;81.83
84501;BME280;74725;44.210;17.906;2024-01-06T06:14:01;96736.50;;;16.19;80.82
84501;BME280;74725;44.210;17.906;2024-01-06T06:16:28;96722.66;;;16.13;80.64
84501;BME280;74725;44.210;17.906;2024-01-06T06:18:55;96729.16;;;16.10;80.72
84501;BME280;74725;44.210;17.906;2024-01-06T06:21:20;96727.41;;;16.13;80.24
84501;BME280;74725;44.210;17.906;2024-01-06T06:23:46;96732.97;;;16.19;80.31
84501;BME280;74725;44.210;17.906;2024-01-06T06:26:12;96729.47;;;16.24;79.39
84501;BME280;74725;44.210;17.906;2024-01-06T06:28:38;96718.38;;;16.12;80.08
84501;BME280;74725;44.210;17.906;2024-01-06T06:31:04;96710.84;;;16.07;79.73
84501;BME280;74725;44.210;17.906;2024-01-06T06:33:29;96727.41;;;16.13;79.45
84501;BME280;74725;44.210;17.906;2024-01-06T06:35:55;96720.94;;;16.27;82.28
84501;BME280;74725;44.210;17.906;2024-01-06T06:38:21;96720.72;;;16.31;77.90
84501;BME280;74725;44.210;17.906;2024-01-06T06:40:47;96717.72;;;16.34;78.67
84501;BME280;74725;44.210;17.906;2024-01-06T06:43:13;96720.75;;;16.42;78.05
84501;BME280;74725;44.210;17.906;2024-01-06T06:45:39;96729.28;;;16.38;79.34
84501;BME280;74725;44.210;17.906;2024-01-06T06:48:05;96722.22;;;16.37;78.38
84501;BME280;74725;44.210;17.906;2024-01-06T06:50:32;96738.97;;;16.17;79.29
84501;BME280;74725;44.210;17.906;2024-01-06T06:52:58;96737.47;;;16.16;80.05
84501;BME280;74725;44.210;17.906;2024-01-06T06:55:24;96730.47;;;16.21;80.92
84501;BME280;74725;44.210;17.906;2024-01-06T06:57:50;96738.28;;;16.28;81.24
84501;BME280;74725;44.210;17.906;2024-01-06T07:00:15;96739.78;;;16.29;77.29
84501;BME280;74725;44.210;17.906;2024-01-06T07:02:42;96738.06;;;16.37;76.88
84501;BME280;74725;44.210;17.906;2024-01-06T07:05:08;96736.56;;;16.42;76.82
84501;BME280;74725;44.210;17.906;2024-01-06T07:07:34;96744.69;;;16.62;74.91
84501;BME280;74725;44.210;17.906;2024-01-06T07:10:03;96744.44;;;16.71;75.02
84501;BME280;74725;44.210;17.906;2024-01-06T07:12:33;96743.22;;;16.83;74.70
84501;BME280;74725;44.210;17.906;2024-01-06T07:14:59;96753.31;;;16.92;74.06
84501;BME280;74725;44.210;17.906;2024-01-06T07:17:25;96754.31;;;17.06;75.27
84501;BME280;74725;44.210;17.906;2024-01-06T07:19:50;96747.78;;;17.03;75.84
84501;BME280;74725;44.210;17.906;2024-01-06T07:22:16;96749.56;;;17.12;74.22
84501;BME280;74725;44.210;17.906;2024-01-06T07:24:43;96746.03;;;17.06;76.92
84501;BME280;74725;44.210;17.906;2024-01-06T07:27:09;96752.56;;;17.14;74.40
84501;BME280;74725;44.210;17.906;2024-01-06T07:29:35;96752.31;;;17.01;74.00
84501;BME280;74725;44.210;17.906;2024-01-06T07:32:00;96742.25;;;17.09;74.50
84501;BME280;74725;44.210;17.906;2024-01-06T07:34:26;96751.53;;;16.83;74.71
84501;BME280;74725;44.210;17.906;2024-01-06T07:36:52;96758.06;;;16.92;74.38
84501;BME280;74725;44.210;17.906;2024-01-06T07:39:18;96753.28;;;16.86;74.14
84501;BME280;74725;44.210;17.906;2024-01-06T07:41:43;96757.06;;;16.89;75.13
84501;BME280;74725;44.210;17.906;2024-01-06T07:44:10;96765.28;;;16.72;75.87
84501;BME280;74725;44.210;17.906;2024-01-06T07:46:35;96752.25;;;16.73;76.28
84501;BME280;74725;44.210;17.906;2024-01-06T07:49:02;96765.34;;;16.78;76.70
84501;BME280;74725;44.210;17.906;2024-01-06T07:51:28;96749.28;;;16.82;80.56
84501;BME280;74725;44.210;17.906;2024-01-06T07:53:53;96761.59;;;16.81;77.79
84501;BME280;74725;44.210;17.906;2024-01-06T07:56:19;96767.38;;;16.89;81.69
84501;BME280;74725;44.210;17.906;2024-01-06T07:58:45;96752.06;;;16.93;76.28
84501;BME280;74725;44.210;17.906;2024-01-06T08:01:10;96766.13;;;17.06;79.08
84501;BME280;74725;44.210;17.906;2024-01-06T08:03:36;96766.13;;;17.06;77.86
84501;BME280;74725;44.210;17.906;2024-01-06T08:06:02;96769.91;;;17.09;77.07
84501;BME280;74725;44.210;17.906;2024-01-06T08:08:28;96769.19;;;17.20;82.24
84501;BME280;74725;44.210;17.906;2024-01-06T08:10:53;96764.63;;;17.22;77.98
84501;BME280;74725;44.210;17.906;2024-01-06T08:13:19;96772.94;;;17.22;76.79
84501;BME280;74725;44.210;17.906;2024-01-06T08:15:45;96768.16;;;17.17;75.42
84501;BME280;74725;44.210;17.906;2024-01-06T08:18:10;96763.91;;;17.27;74.26
84501;BME280;74725;44.210;17.906;2024-01-06T08:20:36;96766.91;;;17.41;74.36
84501;BME280;74725;44.210;17.906;2024-01-06T08:23:01;96781.00;;;17.59;74.43
84501;BME280;74725;44.210;17.906;2024-01-06T08:25:27;96781.22;;;17.61;73.69
84501;BME280;74725;44.210;17.906;2024-01-06T08:27:53;96785.78;;;17.70;73.22
84501;BME280;74725;44.210;17.906;2024-01-06T08:30:18;96776.94;;;17.89;72.56
84501;BME280;74725;44.210;17.906;2024-01-06T08:32:44;96770.16;;;18.01;71.59
84501;BME280;74725;44.210;17.906;2024-01-06T08:35:10;96770.59;;;18.22;70.82
84501;BME280;74725;44.210;17.906;2024-01-06T08:37:35;96773.28;;;18.39;70.14
84501;BME280;74725;44.210;17.906;2024-01-06T08:40:01;96764.66;;;18.59;69.82
84501;BME280;74725;44.210;17.906;2024-01-06T08:42:28;96766.84;;;18.66;71.45
84501;BME280;74725;44.210;17.906;2024-01-06T08:44:54;96764.63;;;18.70;68.88
84501;BME280;74725;44.210;17.906;2024-01-06T08:47:19;96761.34;;;18.61;68.57
84501;BME280;74725;44.210;17.906;2024-01-06T08:49:45;96762.41;;;18.46;69.70
84501;BME280;74725;44.210;17.906;2024-01-06T08:52:10;96764.44;;;18.51;70.39
84501;BME280;74725;44.210;17.906;2024-01-06T08:54:36;96763.59;;;18.62;69.82
84501;BME280;74725;44.210;17.906;2024-01-06T08:57:02;96756.91;;;18.35;69.61
84501;BME280;74725;44.210;17.906;2024-01-06T08:59:27;96751.28;;;18.63;69.85
84501;BME280;74725;44.210;17.906;2024-01-06T09:01:53;96748.97;;;18.67;70.52
84501;BME280;74725;44.210;17.906;2024-01-06T09:04:18;96755.03;;;18.71;70.38
84501;BME280;74725;44.210;17.906;2024-01-06T09:06:44;96765.06;;;18.80;69.35
84501;BME280;74725;44.210;17.906;2024-01-06T09:09:12;96761.09;;;18.64;71.77
84501;BME280;74725;44.210;17.906;2024-01-06T09:11:37;96758.63;;;18.49;71.27
84501;BME280;74725;44.210;17.906;2024-01-06T09:14:03;96756.34;;;18.53;74.91
84501;BME280;74725;44.210;17.906;2024-01-06T09:16:29;96749.56;;;18.49;72.85
84501;BME280;74725;44.210;17.906;2024-01-06T09:18:54;96752.59;;;18.51;73.35
84501;BME280;74725;44.210;17.906;2024-01-06T09:21:20;96759.16;;;18.48;73.36
84501;BME280;74725;44.210;17.906;2024-01-06T09:23:45;96748.72;;;18.65;73.12
84501;BME280;74725;44.210;17.906;2024-01-06T09:26:11;96761.19;;;18.42;74.85
84501;BME280;74725;44.210;17.906;2024-01-06T09:28:37;96761.88;;;18.53;76.12
84501;BME280;74725;44.210;17.906;2024-01-06T09:31:02;96753.28;;;18.63;75.74
84501;BME280;74725;44.210;17.906;2024-01-06T09:33:29;96764.09;;;18.66;74.40
84501;BME280;74725;44.210;17.906;2024-01-06T09:35:55;96748.19;;;18.78;75.54
84501;BME280;74725;44.210;17.906;2024-01-06T09:38:21;96750.97;;;18.78;76.07
84501;BME280;74725;44.210;17.906;2024-01-06T09:40:48;96752.59;;;18.98;75.36
84501;BME280;74725;44.210;17.906;2024-01-06T09:43:14;96744.59;;;19.24;73.94
84501;BME280;74725;44.210;17.906;2024-01-06T09:45:40;96751.56;;;19.67;74.23
84501;BME280;74725;44.210;17.906;2024-01-06T09:48:13;96737.34;;;19.76;74.21
84501;BME280;74725;44.210;17.906;2024-01-06T09:50:40;96730.91;;;20.11;72.13
84501;BME280;74725;44.210;17.906;2024-01-06T09:53:08;96728.44;;;20.51;70.71
84501;BME280;74725;44.210;17.906;2024-01-06T09:55:36;96720.84;;;20.70;69.37
84501;BME280;74725;44.210;17.906;2024-01-06T09:58:03;96710.97;;;20.88;67.87
84501;BME280;74725;44.210;17.906;2024-01-06T10:00:30;96719.78;;;20.73;67.30
84501;BME280;74725;44.210;17.906;2024-01-06T10:02:55;96714.59;;;20.83;67.08
84501;BME280;74725;44.210;17.906;2024-01-06T10:05:21;96700.22;;;20.79;65.88
84501;BME280;74725;44.210;17.906;2024-01-06T10:07:47;96709.19;;;20.72;66.52
84501;BME280;74725;44.210;17.906;2024-01-06T10:10:14;96689.19;;;20.55;66.07
84501;BME280;74725;44.210;17.906;2024-01-06T10:12:41;96694.59;;;20.47;66.74
84501;BME280;74725;44.210;17.906;2024-01-06T10:15:10;96690.69;;;20.37;67.03
84501;BME280;74725;44.210;17.906;2024-01-06T10:17:40;96683.00;;;20.24;66.25
84501;BME280;74725;44.210;17.906;2024-01-06T10:20:12;96682.03;;;20.21;66.70
84501;BME280;74725;44.210;17.906;2024-01-06T10:22:41;96673.91;;;20.23;65.50
84501;BME280;74725;44.210;17.906;2024-01-06T10:25:09;96674.66;;;20.24;66.53
84501;BME280;74725;44.210;17.906;2024-01-06T10:27:39;96670.53;;;20.31;66.60
84501;BME280;74725;44.210;17.906;2024-01-06T10:30:06;96672.03;;;20.13;66.03
84501;BME280;74725;44.210;17.906;2024-01-06T10:32:32;96667.53;;;20.10;66.17
84501;BME280;74725;44.210;17.906;2024-01-06T10:35:00;96662.13;;;19.98;66.79
84501;BME280;74725;44.210;17.906;2024-01-06T10:37:27;96645.00;;;20.32;66.17
84501;BME280;74725;44.210;17.906;2024-01-06T10:40:13;96661.06;;;20.39;66.58
84501;BME280;74725;44.210;17.906;2024-01-06T10:42:40;96649.53;;;20.54;67.26
84501;BME280;74725;44.210;17.906;2024-01-06T10:45:07;96644.94;;;20.75;66.07
84501;BME280;74725;44.210;17.906;2024-01-06T10:47:36;96637.03;;;20.80;65.50
84501;BME280;74725;44.210;17.906;2024-01-06T10:50:02;96625.72;;;20.91;66.27
84501;BME280;74725;44.210;17.906;2024-01-06T10:52:29;96622.78;;;21.15;64.59
84501;BME280;74725;44.210;17.906;2024-01-06T10:54:55;96626.78;;;21.33;63.21
84501;BME280;74725;44.210;17.906;2024-01-06T10:57:21;96615.66;;;21.60;60.57
84501;BME280;74725;44.210;17.906;2024-01-06T10:59:49;96616.38;;;21.87;59.58
84501;BME280;74725;44.210;17.906;2024-01-06T11:02:16;96619.59;;;22.04;58.91
84501;BME280;74725;44.210;17.906;2024-01-06T11:04:48;96614.34;;;22.14;59.49
84501;BME280;74725;44.210;17.906;2024-01-06T11:07:20;96609.59;;;22.09;61.76
84501;BME280;74725;44.210;17.906;2024-01-06T11:12:20;96605.91;;;21.40;63.66
84501;BME280;74725;44.210;17.906;2024-01-06T11:14:46;96600.97;;;21.33;62.87
84501;BME280;74725;44.210;17.906;2024-01-06T11:17:12;96612.94;;;21.28;62.79
84501;BME280;74725;44.210;17.906;2024-01-06T11:22:29;96604.84;;;21.43;61.93
84501;BME280;74725;44.210;17.906;2024-01-06T11:25:04;96588.66;;;21.81;62.06
84501;BME280;74725;44.210;17.906;2024-01-06T11:27:31;96591.59;;;22.10;62.15
84501;BME280;74725;44.210;17.906;2024-01-06T11:29:58;96583.47;;;22.46;61.42
84501;BME280;74725;44.210;17.906;2024-01-06T11:32:30;96579.38;;;22.68;59.00
84501;BME280;74725;44.210;17.906;2024-01-06T11:35:09;96579.75;;;22.85;59.35
84501;BME280;74725;44.210;17.906;2024-01-06T11:37:36;96574.22;;;22.72;58.10
84501;BME280;74725;44.210;17.906;2024-01-06T11:40:10;96571.75;;;22.27;58.79
84501;BME280;74725;44.210;17.906;2024-01-06T11:42:41;96570.31;;;22.33;58.46
84501;BME280;74725;44.210;17.906;2024-01-06T11:45:08;96574.56;;;22.13;59.88
84501;BME280;74725;44.210;17.906;2024-01-06T11:47:35;96571.28;;;21.88;61.15
84501;BME280;74725;44.210;17.906;2024-01-06T11:50:02;96566.50;;;21.62;62.86
84501;BME280;74725;44.210;17.906;2024-01-06T11:52:32;96567.84;;;21.16;64.91
84501;BME280;74725;44.210;17.906;2024-01-06T11:54:58;96571.75;;;20.48;67.99
84501;BME280;74725;44.210;17.906;2024-01-06T11:57:27;96569.16;;;20.18;69.51
84501;BME280;74725;44.210;17.906;2024-01-06T11:59:54;96570.28;;;20.10;70.64
84501;BME280;74725;44.210;17.906;2024-01-06T12:02:19;96572.69;;;20.00;70.93
84501;BME280;74725;44.210;17.906;2024-01-06T12:04:50;96578.38;;;19.89;71.70
84501;BME280;74725;44.210;17.906;2024-01-06T12:07:20;96583.13;;;19.75;73.14
84501;BME280;74725;44.210;17.906;2024-01-06T12:09:51;96576.78;;;19.74;72.79
84501;BME280;74725;44.210;17.906;2024-01-06T12:12:25;96566.09;;;19.60;74.63
84501;BME280;74725;44.210;17.906;2024-01-06T12:14:51;96566.84;;;19.60;74.31
84501;BME280;74725;44.210;17.906;2024-01-06T12:17:16;96563.97;;;19.47;74.90
84501;BME280;74725;44.210;17.906;2024-01-06T12:19:42;96567.69;;;19.30;75.71
84501;BME280;74725;44.210;17.906;2024-01-06T12:22:11;96564.31;;;19.38;74.94
84501;BME280;74725;44.210;17.906;2024-01-06T12:24:38;96551.38;;;19.46;75.12
84501;BME280;74725;44.210;17.906;2024-01-06T12:27:07;96567.47;;;19.47;75.98
84501;BME280;74725;44.210;17.906;2024-01-06T12:29:33;96556.00;;;19.38;75.05
84501;BME280;74725;44.210;17.906;2024-01-06T12:31:59;96555.78;;;19.54;75.81
84501;BME280;74725;44.210;17.906;2024-01-06T12:34:25;96547.75;;;19.51;75.34
84501;BME280;74725;44.210;17.906;2024-01-06T12:36:52;96548.81;;;19.48;75.65
84501;BME280;74725;44.210;17.906;2024-01-06T12:39:18;96541.66;;;19.34;75.76
84501;BME280;74725;44.210;17.906;2024-01-06T12:41:44;96545.78;;;19.27;75.71
84501;BME280;74725;44.210;17.906;2024-01-06T12:44:10;96552.31;;;19.29;77.03
84501;BME280;74725;44.210;17.906;2024-01-06T12:46:35;96545.03;;;19.26;76.66
84501;BME280;74725;44.210;17.906;2024-01-06T12:49:02;96542.50;;;19.28;76.11